Portada
METAR-TAF:

METAR-TAF

Aeroports :

Aeroport de Sant Sebastià

Sant Sebastià, Espanya

latitud: 43-21N, longitud: 001-48W, altitud: 5 m

Observació

L'informe es va fer fa 21 minuts, a les 16:00 UTC
Vent 6 kt del Nord-Est, variant entre Nord i Est/Nord-Est
Temperatura 22°C
Humitat 78%
Pressió 1025 hPa
Visibilitat 10 km o més
sense núvols per sota de 1500 mi sense presència de cumulonimbus.

METAR: LESO 271600Z 04006KT 350V070 CAVOK 22/18 Q1025

Hora: 18:21 (16:21 UTC)

Pronòstic

L'informe es va fer fa 5 hores i 21 minuts, a les 11:00 UTC
Pronòstic vàlid del 27 a les 12 UTC al 28 a les 12 UTC
Vent 8 kt del Nord/Nord-Est
Visibilitat 10 km o més
sense núvols per sota de 1500 mi sense presència de cumulonimbus.

TAF: LESO 271100Z 2712/2812 03008KT CAVOK TX23/2713Z TN17/2805Z

Observacions i pronòstics meteorològics de més de 4000 aeroports (METAR i TAF).

Les estacions disponibles són els punts grocs i vermells al mapa.

Posi el ratolí al punt desitjat per veure el nom de l'estació.

Feu clic per veure les observacions i els pronòstics meteorològics.

Per canviar el mapa: feu clic els botons verds amb una creu de color negre per apropar; al botó verd amb un guió per allunyar la imatge; o en les fletxes verdes per a mapes adjacents.


METAR-TAF: